TimeEDT,TemperatureF,Dew PointF,Humidity,Sea Level PressureIn,VisibilityMPH,Wind Direction,Wind SpeedMPH,Gust SpeedMPH,PrecipitationIn,Events,Conditions,WindDirDegrees,DateUTC
12:53 AM,61.0,52.0,72,30.12,-9999.0,Calm,Calm,-,N/A,,Unknown,0,2013-03-11 04:53:00
1:53 AM,57.0,51.1,81,30.11,-9999.0,East,3.5,-,N/A,,Unknown,100,2013-03-11 05:53:00
2:53 AM,59.0,53.1,81,30.08,-9999.0,ESE,3.5,-,N/A,,Unknown,120,2013-03-11 06:53:00
3:53 AM,57.0,52.0,83,30.06,-9999.0,Calm,Calm,-,N/A,,Unknown,0,2013-03-11 07:53:00
4:53 AM,57.0,52.0,83,30.04,-9999.0,Calm,Calm,-,N/A,,Unknown,0,2013-03-11 08:53:00
5:53 AM,55.9,52.0,87,30.03,-9999.0,ESE,3.5,-,N/A,,Unknown,120,2013-03-11 09:53:00
6:53 AM,55.9,52.0,87,30.02,-9999.0,Calm,Calm,-,N/A,,Unknown,0,2013-03-11 10:53:00
7:53 AM,55.9,52.0,87,30.03,-9999.0,ESE,3.5,-,N/A,,Unknown,110,2013-03-11 11:53:00
8:53 AM,59.0,54.0,83,30.04,-9999.0,Variable,6.9,-,N/A,,Unknown,0,2013-03-11 12:53:00
9:53 AM,64.9,55.0,70,30.06,-9999.0,SSE,6.9,-,N/A,,Unknown,160,2013-03-11 13:53:00
10:53 AM,69.1,57.0,65,30.06,-9999.0,SSE,6.9,-,N/A,,Unknown,160,2013-03-11 14:53:00
11:53 AM,73.0,55.9,55,30.05,-9999.0,SSE,10.4,-,N/A,,Unknown,160,2013-03-11 15:53:00
12:53 PM,75.0,55.0,50,30.05,-9999.0,South,11.5,20.7,N/A,,Unknown,190,2013-03-11 16:53:00
1:53 PM,75.9,55.0,48,30.02,-9999.0,SSW,16.1,21.9,N/A,,Unknown,200,2013-03-11 17:53:00
2:53 PM,73.9,55.0,52,29.98,-9999.0,South,18.4,26.5,N/A,,Unknown,190,2013-03-11 18:53:00
3:53 PM,75.9,57.0,52,29.96,-9999.0,SSW,17.3,25.3,N/A,,Unknown,200,2013-03-11 19:53:00
4:53 PM,73.9,55.9,53,29.94,-9999.0,South,15.0,26.5,N/A,,Unknown,170,2013-03-11 20:53:00
5:53 PM,73.0,55.9,55,29.91,-9999.0,South,13.8,-,N/A,,Unknown,170,2013-03-11 21:53:00
6:53 PM,71.1,55.9,59,29.89,-9999.0,South,12.7,20.7,N/A,,Unknown,180,2013-03-11 22:53:00
7:53 PM,69.1,57.0,65,29.90,-9999.0,South,8.1,-,N/A,,Unknown,180,2013-03-11 23:53:00
8:53 PM,69.1,55.9,63,29.92,-9999.0,South,9.2,-,N/A,,Unknown,180,2013-03-12 00:53:00
9:53 PM,69.1,57.9,68,29.94,-9999.0,SSW,6.9,-,N/A,,Unknown,200,2013-03-12 01:53:00
10:53 PM,68.0,57.9,70,29.91,-9999.0,South,6.9,-,0.01,,Unknown,180,2013-03-12 02:53:00
11:53 PM,68.0,57.9,70,29.88,-9999.0,South,9.2,-,N/A,,Unknown,170,2013-03-12 03:53:00